Trinity, Mississippi
Current Conditions -  °F | °C
As of 4:05 PM on Sunday 25 Jan 2015 (Local Time) from KGTR Reporting Station
Broken Clouds Broken Clouds  
Wind Chill: 61°   Ceiling: 6500
Heat Index: 61°   Visibility: 10mi
Dew Point: 39°   Wind: 12mph
Humidity: 45%   Direction: 300°WNW
Pressure: 29.73"   Gusts: 21mph
Location:  33.3415°N, 88.5175°W
Report Text: KGTR 252205Z 30010G18KT 10SM BKN065 BKN080 16/04 A2973
Loading
Personal Weather Stations






























Interactive Weather Map New forecast layout! Learn more

10-Day Weather Forecast

Advertisements
Track Severe Weather on mobile